createdAt,value
2019-06-15T00:00:27.842Z,0.53
2019-06-15T00:02:54.020Z,0.60
2019-06-15T00:05:20.380Z,0.80
2019-06-15T00:07:46.712Z,0.60
2019-06-15T00:10:15.284Z,0.67
2019-06-15T00:12:41.420Z,0.50
2019-06-15T00:15:08.290Z,0.70
2019-06-15T00:17:34.410Z,0.30
2019-06-15T00:20:00.702Z,0.50
2019-06-15T00:22:26.897Z,0.40
2019-06-15T00:24:53.292Z,0.80
2019-06-15T00:27:19.456Z,0.80
2019-06-15T00:29:45.913Z,1.20
2019-06-15T00:32:12.319Z,0.60
2019-06-15T00:34:38.496Z,0.50
2019-06-15T00:37:05.019Z,0.73
2019-06-15T00:39:31.201Z,0.40
2019-06-15T00:41:57.633Z,8.37
2019-06-15T00:44:23.943Z,3.13
2019-06-15T00:46:50.126Z,2.27
2019-06-15T00:49:16.677Z,1.80
2019-06-15T00:51:43.029Z,1.17
2019-06-15T00:54:09.441Z,7.80
2019-06-15T00:56:35.727Z,2.73
2019-06-15T00:59:02.265Z,2.60
2019-06-15T01:01:28.638Z,2.93
2019-06-15T01:03:54.971Z,5.60
2019-06-15T01:06:21.885Z,4.50
2019-06-15T01:08:48.007Z,4.13
2019-06-15T01:11:14.299Z,6.33
2019-06-15T01:13:40.950Z,4.10
2019-06-15T01:16:07.214Z,3.03
2019-06-15T01:18:33.464Z,3.30
2019-06-15T01:20:59.921Z,4.30
2019-06-15T01:23:26.350Z,5.07
2019-06-15T01:25:52.660Z,2.50
2019-06-15T01:28:19.597Z,1.90
2019-06-15T01:30:46.431Z,2.80
2019-06-15T01:33:12.598Z,2.80
2019-06-15T01:35:42.879Z,1.63
2019-06-15T01:38:09.381Z,2.27
2019-06-15T01:40:35.985Z,1.60
2019-06-15T01:43:02.252Z,1.40
2019-06-15T01:45:28.482Z,0.87
2019-06-15T01:47:55.488Z,0.70
2019-06-15T01:50:22.170Z,0.80
2019-06-15T01:52:48.502Z,0.57
2019-06-15T01:55:20.940Z,0.50
2019-06-15T01:57:45.687Z,0.40
2019-06-15T02:00:24.357Z,0.80
2019-06-15T02:02:51.214Z,0.40
2019-06-15T02:05:18.068Z,0.60
2019-06-15T02:07:44.830Z,0.23
2019-06-15T02:10:14.797Z,0.27
2019-06-15T02:12:41.472Z,0.33
2019-06-15T02:15:07.935Z,0.47
2019-06-15T02:17:35.392Z,0.30
2019-06-15T02:20:02.453Z,0.20
2019-06-15T02:22:28.584Z,0.23
2019-06-15T02:24:54.756Z,0.30
2019-06-15T02:27:20.972Z,0.63
2019-06-15T02:29:47.439Z,0.50
2019-06-15T02:32:13.641Z,0.30
2019-06-15T02:34:40.099Z,0.30
2019-06-15T02:37:06.548Z,0.30
2019-06-15T02:39:32.706Z,0.20
2019-06-15T02:41:59.073Z,0.37
2019-06-15T02:44:25.546Z,0.40
2019-06-15T02:46:52.137Z,0.30
2019-06-15T02:49:18.407Z,0.10
2019-06-15T02:51:44.876Z,0.20
2019-06-15T02:54:11.108Z,0.20
2019-06-15T02:56:39.454Z,0.20
2019-06-15T02:59:05.846Z,0.20
2019-06-15T03:01:33.576Z,0.57
2019-06-15T03:04:00.020Z,0.57
2019-06-15T03:06:26.468Z,0.30
2019-06-15T03:08:52.881Z,0.50
2019-06-15T03:11:20.943Z,0.80
2019-06-15T03:13:48.910Z,0.50
2019-06-15T03:16:15.256Z,0.60
2019-06-15T03:18:41.522Z,0.73
2019-06-15T03:21:07.719Z,0.60
2019-06-15T03:23:34.165Z,0.60
2019-06-15T03:26:05.673Z,0.40
2019-06-15T03:28:28.700Z,1.00
2019-06-15T03:30:55.894Z,0.80
2019-06-15T03:33:23.702Z,0.90
2019-06-15T03:35:49.836Z,0.50
2019-06-15T03:38:16.092Z,0.83
2019-06-15T03:40:42.766Z,0.60
2019-06-15T03:43:09.758Z,0.60
2019-06-15T03:45:36.407Z,0.57
2019-06-15T03:48:02.888Z,1.30
2019-06-15T03:50:29.232Z,0.70
2019-06-15T03:52:56.272Z,1.03
2019-06-15T03:55:22.508Z,1.27
2019-06-15T03:57:48.921Z,1.10
2019-06-15T04:00:33.824Z,1.03
2019-06-15T04:03:00.193Z,0.93
2019-06-15T04:05:26.530Z,1.00
2019-06-15T04:07:52.881Z,0.90
2019-06-15T04:10:19.187Z,1.10
2019-06-15T04:12:45.450Z,1.60
2019-06-15T04:15:11.838Z,1.10
2019-06-15T04:17:38.763Z,1.63
2019-06-15T04:20:05.156Z,1.13
2019-06-15T04:22:31.384Z,1.00
2019-06-15T04:24:57.769Z,1.17
2019-06-15T04:27:24.136Z,0.87
2019-06-15T04:29:50.478Z,1.13
2019-06-15T04:32:16.966Z,0.50
2019-06-15T04:34:43.144Z,1.10
2019-06-15T04:37:09.426Z,1.30
2019-06-15T04:39:35.747Z,1.40
2019-06-15T04:42:02.382Z,1.43
2019-06-15T04:44:28.633Z,1.23
2019-06-15T04:46:54.883Z,0.87
2019-06-15T04:49:21.036Z,1.20
2019-06-15T04:51:47.188Z,0.80
2019-06-15T04:54:13.783Z,0.80
2019-06-15T04:56:50.548Z,0.70
2019-06-15T04:59:08.010Z,1.10
2019-06-15T05:01:34.447Z,0.70
2019-06-15T05:04:00.616Z,1.23
2019-06-15T05:06:26.819Z,1.40
2019-06-15T05:08:53.191Z,0.90
2019-06-15T05:11:19.589Z,0.87
2019-06-15T05:13:45.794Z,0.83
2019-06-15T05:16:11.936Z,0.80
2019-06-15T05:18:38.380Z,0.88
2019-06-15T05:21:04.618Z,0.68
2019-06-15T05:23:30.951Z,0.65
2019-06-15T05:25:57.218Z,1.20
2019-06-15T05:28:23.469Z,0.75
2019-06-15T05:30:49.763Z,1.40
2019-06-15T05:33:15.980Z,1.25
2019-06-15T05:35:42.336Z,0.65
2019-06-15T05:38:09.087Z,0.90
2019-06-15T05:40:35.549Z,0.80
2019-06-15T05:43:01.816Z,0.80
2019-06-15T05:45:46.086Z,1.10
2019-06-15T05:50:58.583Z,0.65
2019-06-15T05:53:43.547Z,0.70
2019-06-15T05:56:09.706Z,0.45
2019-06-15T05:58:36.163Z,0.75
2019-06-15T06:01:02.545Z,0.85
2019-06-15T06:03:44.321Z,0.75
2019-06-15T06:06:11.095Z,0.75
2019-06-15T06:08:46.250Z,0.47
2019-06-15T06:11:12.606Z,0.82
2019-06-15T06:13:38.748Z,0.40
2019-06-15T06:16:05.211Z,0.60
2019-06-15T06:18:46.827Z,0.40
2019-06-15T06:21:13.161Z,0.30
2019-06-15T06:23:39.387Z,0.30
2019-06-15T06:26:06.896Z,0.40
2019-06-15T06:28:56.908Z,0.35
2019-06-15T06:31:14.028Z,0.15
2019-06-15T06:33:46.657Z,0.23
2019-06-15T06:36:13.364Z,0.20
2019-06-15T06:38:39.830Z,0.30
2019-06-15T06:41:05.982Z,0.42
2019-06-15T06:43:32.219Z,0.35
2019-06-15T06:45:58.384Z,0.53
2019-06-15T06:48:24.540Z,0.30
2019-06-15T06:50:51.066Z,0.20
2019-06-15T06:53:17.381Z,0.50
2019-06-15T06:55:43.823Z,0.40
2019-06-15T06:58:09.994Z,0.40
2019-06-15T07:00:36.431Z,0.30
2019-06-15T07:03:03.035Z,0.37
2019-06-15T07:05:29.599Z,0.20
2019-06-15T07:07:55.868Z,0.23
2019-06-15T07:10:22.178Z,0.30
2019-06-15T07:12:48.819Z,0.30
2019-06-15T07:15:15.679Z,0.10
2019-06-15T07:17:42.371Z,0.10
2019-06-15T07:20:09.354Z,0.15
2019-06-15T07:22:35.910Z,0.20
2019-06-15T07:25:04.384Z,0.33
2019-06-15T07:27:30.927Z,0.28
2019-06-15T07:29:57.265Z,0.10
2019-06-15T07:32:23.393Z,0.20
2019-06-15T07:34:49.623Z,0.40
2019-06-15T07:37:16.217Z,0.20
2019-06-15T07:39:42.454Z,0.10
2019-06-15T07:42:08.719Z,0.10
2019-06-15T07:44:35.297Z,0.10
2019-06-15T07:47:01.817Z,0.05
2019-06-15T07:49:28.957Z,0.20
2019-06-15T07:51:55.360Z,0.20
2019-06-15T07:54:21.641Z,0.10
2019-06-15T07:56:48.211Z,0.10
2019-06-15T07:59:18.617Z,0.10
2019-06-15T08:01:45.397Z,0.20
2019-06-15T08:04:11.898Z,0.20
2019-06-15T08:06:38.158Z,0.17
2019-06-15T08:09:05.549Z,0.20
2019-06-15T08:11:33.435Z,0.13
2019-06-15T08:13:59.621Z,0.17
2019-06-15T08:16:45.866Z,0.10
2019-06-15T08:19:12.256Z,0.10
2019-06-15T08:21:38.404Z,0.10
2019-06-15T08:24:05.085Z,0.10
2019-06-15T08:26:31.333Z,0.03
2019-06-15T08:28:57.493Z,0.00
2019-06-15T08:31:23.773Z,0.10
2019-06-15T08:33:50.311Z,0.05
2019-06-15T08:36:16.718Z,0.30
2019-06-15T08:38:43.220Z,0.10
2019-06-15T08:41:09.841Z,0.28
2019-06-15T08:43:36.199Z,0.20
2019-06-15T08:46:02.975Z,0.10
2019-06-15T08:48:29.210Z,0.10
2019-06-15T08:50:55.565Z,0.10
2019-06-15T08:53:21.996Z,0.45
2019-06-15T08:55:48.409Z,0.30
2019-06-15T08:58:14.654Z,0.40
2019-06-15T09:00:40.788Z,0.30
2019-06-15T09:03:07.152Z,0.30
2019-06-15T09:05:33.460Z,0.10
2019-06-15T09:08:00.135Z,0.23
2019-06-15T09:10:26.474Z,0.30
2019-06-15T09:12:53.047Z,0.15
2019-06-15T09:15:32.040Z,0.15
2019-06-15T09:17:58.372Z,0.30
2019-06-15T09:20:24.509Z,0.20
2019-06-15T09:22:50.842Z,0.23
2019-06-15T09:25:17.079Z,0.10
2019-06-15T09:27:43.373Z,0.20
2019-06-15T09:30:10.893Z,0.10
2019-06-15T09:32:40.268Z,0.17
2019-06-15T09:35:07.634Z,0.30
2019-06-15T09:37:35.482Z,0.15
2019-06-15T09:40:05.810Z,0.10
2019-06-15T09:42:32.165Z,0.10
2019-06-15T09:44:58.669Z,0.10
2019-06-15T09:47:24.936Z,0.10
2019-06-15T09:49:51.072Z,0.20
2019-06-15T09:52:17.486Z,0.20
2019-06-15T09:54:44.185Z,0.10
2019-06-15T09:57:10.318Z,0.23
2019-06-15T09:59:38.487Z,0.30
2019-06-15T10:02:04.937Z,0.20
2019-06-15T10:04:31.292Z,0.28
2019-06-15T10:06:57.901Z,0.23
2019-06-15T10:09:24.320Z,0.20
2019-06-15T10:11:50.665Z,0.20
2019-06-15T10:14:17.124Z,0.20
2019-06-15T10:16:43.660Z,0.28
2019-06-15T10:19:10.259Z,0.17
2019-06-15T10:21:36.395Z,0.13
2019-06-15T10:24:02.994Z,0.20
2019-06-15T10:26:29.275Z,0.20
2019-06-15T10:28:55.502Z,0.20
2019-06-15T10:31:22.211Z,0.30
2019-06-15T10:33:48.705Z,0.20
2019-06-15T10:36:15.031Z,0.30
2019-06-15T10:38:41.478Z,0.20
2019-06-15T10:41:07.968Z,0.20
2019-06-15T10:43:34.398Z,0.35
2019-06-15T10:46:01.525Z,0.33
2019-06-15T10:48:27.673Z,0.30
2019-06-15T10:50:53.827Z,0.40
2019-06-15T10:53:20.355Z,0.20
2019-06-15T10:55:46.575Z,0.20
2019-06-15T10:58:12.898Z,0.10
2019-06-15T11:00:39.389Z,0.13
2019-06-15T11:03:25.642Z,0.23
2019-06-15T11:05:54.803Z,0.10
2019-06-15T11:08:20.437Z,0.30
2019-06-15T11:10:50.421Z,0.30
2019-06-15T11:13:16.893Z,0.05
2019-06-15T11:15:43.432Z,0.20
2019-06-15T11:18:09.642Z,0.30
2019-06-15T11:20:35.946Z,0.35
2019-06-15T11:23:02.377Z,0.45
2019-06-15T11:25:28.721Z,0.20
2019-06-15T11:27:55.157Z,0.20
2019-06-15T11:30:21.792Z,0.10
2019-06-15T11:32:48.336Z,0.37
2019-06-15T11:35:15.394Z,0.40
2019-06-15T11:37:41.665Z,0.30
2019-06-15T11:40:09.864Z,0.42
2019-06-15T11:42:36.308Z,0.03
2019-06-15T11:45:05.013Z,0.30
2019-06-15T11:47:31.583Z,0.50
2019-06-15T11:49:57.943Z,0.30
2019-06-15T11:52:24.337Z,0.20
2019-06-15T11:54:51.385Z,0.30
2019-06-15T11:57:17.579Z,0.40
2019-06-15T11:59:43.765Z,0.20
2019-06-15T12:02:10.469Z,0.20
2019-06-15T12:04:37.003Z,0.20
2019-06-15T12:07:03.567Z,0.40
2019-06-15T12:09:30.127Z,0.20
2019-06-15T12:11:56.560Z,0.20
2019-06-15T12:14:23.423Z,0.40
2019-06-15T12:16:50.092Z,0.25
2019-06-15T12:19:16.396Z,0.20
2019-06-15T12:21:42.909Z,0.50
2019-06-15T12:24:09.275Z,0.60
2019-06-15T12:26:36.952Z,0.15
2019-06-15T12:29:03.475Z,0.30
2019-06-15T12:31:29.882Z,0.30
2019-06-15T12:33:56.224Z,0.15
2019-06-15T12:36:22.367Z,0.30
2019-06-15T12:38:48.689Z,0.30
2019-06-15T12:41:15.148Z,0.20
2019-06-15T12:43:41.405Z,0.25
2019-06-15T12:46:07.758Z,0.23
2019-06-15T12:48:34.071Z,0.25
2019-06-15T12:51:00.553Z,0.45
2019-06-15T12:53:26.942Z,0.47
2019-06-15T12:55:53.156Z,0.40
2019-06-15T12:58:19.511Z,0.30
2019-06-15T13:01:01.109Z,0.35
2019-06-15T13:03:13.982Z,0.47
2019-06-15T13:05:40.272Z,0.37
2019-06-15T13:08:06.444Z,0.28
2019-06-15T13:10:32.637Z,0.45
2019-06-15T13:12:58.756Z,0.40
2019-06-15T13:15:25.146Z,2.15
2019-06-15T13:17:51.408Z,2.47
2019-06-15T13:20:18.413Z,1.02
2019-06-15T13:22:44.775Z,0.82
2019-06-15T13:25:11.488Z,0.68
2019-06-15T13:27:37.831Z,0.50
2019-06-15T13:30:08.616Z,0.93
2019-06-15T13:32:34.849Z,0.57
2019-06-15T13:35:01.294Z,0.15
2019-06-15T13:37:41.324Z,0.20
2019-06-15T13:39:56.285Z,0.30
2019-06-15T13:42:22.590Z,0.20
2019-06-15T13:44:49.089Z,0.40
2019-06-15T13:47:15.402Z,0.42
2019-06-15T13:49:41.600Z,0.30
2019-06-15T13:52:08.008Z,0.40
2019-06-15T13:54:34.657Z,0.30
2019-06-15T13:57:00.919Z,0.40
2019-06-15T13:59:27.605Z,0.30
2019-06-15T14:01:53.824Z,0.28
2019-06-15T14:04:20.091Z,0.28
2019-06-15T14:06:46.381Z,0.50
2019-06-15T14:09:12.539Z,0.10
2019-06-15T14:11:38.967Z,0.20
2019-06-15T14:14:06.761Z,0.10
2019-06-15T14:16:33.322Z,0.20
2019-06-15T14:18:59.450Z,0.30
2019-06-15T14:21:26.135Z,0.40
2019-06-15T14:23:52.256Z,0.10
2019-06-15T14:26:19.844Z,0.20
2019-06-15T14:28:46.423Z,0.20
2019-06-15T14:31:12.939Z,0.30
2019-06-15T14:33:39.188Z,0.40
2019-06-15T14:36:05.425Z,0.17
2019-06-15T14:38:31.761Z,0.50
2019-06-15T14:40:58.242Z,0.30
2019-06-15T14:43:24.661Z,0.20
2019-06-15T14:45:59.470Z,0.30
2019-06-15T14:48:19.196Z,0.28
2019-06-15T14:50:45.843Z,0.60
2019-06-15T14:53:12.156Z,0.30
2019-06-15T14:55:38.649Z,0.30
2019-06-15T14:58:06.333Z,0.42
2019-06-15T15:00:32.709Z,0.25
2019-06-15T15:02:58.898Z,0.45
2019-06-15T15:05:27.341Z,0.25
2019-06-15T15:07:56.251Z,0.28
2019-06-15T15:10:22.466Z,0.55
2019-06-15T15:12:49.163Z,0.42
2019-06-15T15:15:17.080Z,0.53
2019-06-15T15:17:45.906Z,0.50
2019-06-15T15:20:12.054Z,0.50
2019-06-15T15:22:39.293Z,0.50
2019-06-15T15:25:06.531Z,0.20
2019-06-15T15:27:33.572Z,0.40
2019-06-15T15:29:59.851Z,0.30
2019-06-15T15:32:31.249Z,0.40
2019-06-15T15:34:55.990Z,0.40
2019-06-15T15:37:22.679Z,0.40
2019-06-15T15:39:48.968Z,0.28
2019-06-15T15:42:16.986Z,0.28
2019-06-15T15:44:43.643Z,0.40
2019-06-15T15:47:11.642Z,0.40
2019-06-15T15:49:38.183Z,0.50
2019-06-15T15:52:04.507Z,0.57
2019-06-15T15:54:30.996Z,0.30
2019-06-15T15:56:57.114Z,0.35
2019-06-15T15:59:23.743Z,0.60
2019-06-15T16:01:50.205Z,0.40
2019-06-15T16:04:17.190Z,0.40
2019-06-15T16:06:43.878Z,0.40
2019-06-15T16:09:10.624Z,0.45
2019-06-15T16:11:37.201Z,0.40
2019-06-15T16:14:03.828Z,0.37
2019-06-15T16:16:30.024Z,0.35
2019-06-15T16:18:56.321Z,0.53
2019-06-15T16:21:25.890Z,0.40
2019-06-15T16:23:54.756Z,0.42
2019-06-15T16:26:19.864Z,0.47
2019-06-15T16:28:46.323Z,0.40
2019-06-15T16:31:14.015Z,0.40
2019-06-15T16:33:41.293Z,0.50
2019-06-15T16:36:07.469Z,0.42
2019-06-15T16:38:36.432Z,0.50
2019-06-15T16:41:02.323Z,0.30
2019-06-15T16:43:28.992Z,0.47
2019-06-15T16:45:57.052Z,0.30
2019-06-15T16:48:25.949Z,0.35
2019-06-15T16:50:52.096Z,0.30
2019-06-15T16:53:18.723Z,0.65
2019-06-15T16:55:46.807Z,0.33
2019-06-15T16:58:15.965Z,0.40
2019-06-15T17:00:41.674Z,0.40
2019-06-15T17:03:20.908Z,0.25
2019-06-15T17:05:36.674Z,0.35
2019-06-15T17:08:03.400Z,0.33
2019-06-15T17:10:33.377Z,0.37
2019-06-15T17:12:59.615Z,0.40
2019-06-15T17:15:26.422Z,0.40
2019-06-15T17:17:53.040Z,0.30
2019-06-15T17:20:22.997Z,0.30
2019-06-15T17:22:49.263Z,0.30
2019-06-15T17:25:16.590Z,0.40
2019-06-15T17:27:43.229Z,0.40
2019-06-15T17:30:09.783Z,0.10
2019-06-15T17:32:36.949Z,0.30
2019-06-15T17:35:06.156Z,0.20
2019-06-15T17:37:32.785Z,0.40
2019-06-15T17:39:59.161Z,0.68
2019-06-15T17:42:26.043Z,0.60
2019-06-15T17:44:52.661Z,0.40
2019-06-15T17:47:19.178Z,0.68
2019-06-15T17:49:46.879Z,0.47
2019-06-15T17:52:13.602Z,0.30
2019-06-15T17:54:40.164Z,0.30
2019-06-15T17:57:06.554Z,0.35
2019-06-15T17:59:32.839Z,0.50
2019-06-15T18:01:59.423Z,0.70
2019-06-15T18:04:25.831Z,0.30
2019-06-15T18:06:52.487Z,0.50
2019-06-15T18:09:18.943Z,0.30
2019-06-15T18:11:46.487Z,0.50
2019-06-15T18:14:13.461Z,0.50
2019-06-15T18:16:39.894Z,0.20
2019-06-15T18:19:06.992Z,0.45
2019-06-15T18:21:33.489Z,0.40
2019-06-15T18:23:59.651Z,2.83
2019-06-15T18:26:26.786Z,27.17
2019-06-15T18:28:53.441Z,44.70
2019-06-15T18:31:19.820Z,24.10
2019-06-15T18:33:47.346Z,14.20
2019-06-15T18:36:16.969Z,8.13
2019-06-15T18:38:41.959Z,4.60
2019-06-15T18:41:08.362Z,3.42
2019-06-15T18:43:36.609Z,2.95
2019-06-15T18:46:03.110Z,1.72
2019-06-15T18:48:29.639Z,1.30
2019-06-15T18:50:56.115Z,0.80
2019-06-15T18:53:22.673Z,1.22
2019-06-15T18:55:49.094Z,0.62
2019-06-15T18:58:17.298Z,0.70
2019-06-15T19:00:43.639Z,0.50
2019-06-15T19:03:10.182Z,0.40
2019-06-15T19:05:37.463Z,0.53
2019-06-15T19:08:06.350Z,0.37
2019-06-15T19:10:34.626Z,0.23
2019-06-15T19:13:01.673Z,0.30
2019-06-15T19:15:28.068Z,0.50
2019-06-15T19:17:55.979Z,1.40
2019-06-15T19:20:22.674Z,1.55
2019-06-15T19:22:48.830Z,1.85
2019-06-15T19:25:16.714Z,0.98
2019-06-15T19:27:42.910Z,0.78
2019-06-15T19:30:09.652Z,0.68
2019-06-15T19:32:36.844Z,0.50
2019-06-15T19:35:07.830Z,0.62
2019-06-15T19:37:37.091Z,0.53
2019-06-15T19:40:07.437Z,0.35
2019-06-15T19:42:36.510Z,0.20
2019-06-15T19:45:10.087Z,0.50
2019-06-15T19:47:34.630Z,0.30
2019-06-15T19:50:01.547Z,0.45
2019-06-15T19:52:28.039Z,0.23
2019-06-15T19:54:54.599Z,0.20
2019-06-15T19:57:20.718Z,0.50
2019-06-15T19:59:47.498Z,0.37
2019-06-15T20:02:16.351Z,0.30
2019-06-15T20:04:57.042Z,0.40
2019-06-15T20:07:10.228Z,0.60
2019-06-15T20:09:37.058Z,0.20
2019-06-15T20:12:06.575Z,0.20
2019-06-15T20:14:52.699Z,0.40
2019-06-15T20:17:18.920Z,0.50
2019-06-15T20:19:46.506Z,0.20
2019-06-15T20:22:12.985Z,0.30
2019-06-15T20:24:39.176Z,0.10
2019-06-15T20:27:10.137Z,0.40
2019-06-15T20:29:36.125Z,0.30
2019-06-15T20:32:02.845Z,0.50
2019-06-15T20:34:29.060Z,0.30
2019-06-15T20:36:55.355Z,0.30
2019-06-15T20:39:21.500Z,0.33
2019-06-15T20:41:48.167Z,0.27
2019-06-15T20:44:16.540Z,0.20
2019-06-15T20:46:43.373Z,0.30
2019-06-15T20:49:09.713Z,0.75
2019-06-15T20:51:37.147Z,0.30
2019-06-15T20:54:06.761Z,0.40
2019-06-15T20:56:52.092Z,0.30
2019-06-15T20:59:18.998Z,0.20
2019-06-15T21:01:45.675Z,0.10
2019-06-15T21:04:12.161Z,0.60
2019-06-15T21:06:38.673Z,0.30
2019-06-15T21:09:06.691Z,0.30
2019-06-15T21:11:36.060Z,0.10
2019-06-15T21:14:01.785Z,0.30
2019-06-15T21:16:27.913Z,0.30
2019-06-15T21:18:56.972Z,0.28
2019-06-15T21:21:23.089Z,0.40
2019-06-15T21:23:49.366Z,0.28
2019-06-15T21:26:16.389Z,0.40
2019-06-15T21:28:42.842Z,0.20
2019-06-15T21:31:08.992Z,0.40
2019-06-15T21:33:36.070Z,0.30
2019-06-15T21:36:02.757Z,0.30
2019-06-15T21:38:29.292Z,0.40
2019-06-15T21:40:57.033Z,0.17
2019-06-15T21:43:23.633Z,0.20
2019-06-15T21:45:50.572Z,0.20
2019-06-15T21:48:16.725Z,0.40
2019-06-15T21:50:42.878Z,0.20
2019-06-15T21:53:09.268Z,0.50
2019-06-15T21:55:36.362Z,1.00
2019-06-15T21:58:03.047Z,0.60
2019-06-15T22:00:47.746Z,0.43
2019-06-15T22:03:16.380Z,0.83
2019-06-15T22:05:42.897Z,0.43
2019-06-15T22:08:09.250Z,0.37
2019-06-15T22:10:36.078Z,0.30
2019-06-15T22:13:02.829Z,0.40
2019-06-15T22:15:29.108Z,0.50
2019-06-15T22:17:55.559Z,0.47
2019-06-15T22:20:21.730Z,0.47
2019-06-15T22:22:47.871Z,0.40
2019-06-15T22:25:15.948Z,0.50
2019-06-15T22:27:42.266Z,0.20
2019-06-15T22:30:10.316Z,0.50
2019-06-15T22:32:36.597Z,0.30
2019-06-15T22:35:07.127Z,0.30
2019-06-15T22:37:35.809Z,0.23
2019-06-15T22:40:07.450Z,0.20
2019-06-15T22:42:36.141Z,0.17
2019-06-15T22:45:06.497Z,0.30
2019-06-15T22:47:32.126Z,0.20
2019-06-15T22:49:58.325Z,0.17
2019-06-15T22:52:26.445Z,0.10
2019-06-15T22:58:34.482Z,0.30
2019-06-15T23:01:01.001Z,0.33
2019-06-15T23:03:27.344Z,0.33
2019-06-15T23:05:53.757Z,0.70
2019-06-15T23:08:19.986Z,0.23
2019-06-15T23:10:47.721Z,0.30
2019-06-15T23:13:16.045Z,0.50
2019-06-15T23:15:42.685Z,0.67
2019-06-15T23:18:08.973Z,0.60
2019-06-15T23:20:36.866Z,0.40
2019-06-15T23:23:03.363Z,0.47
2019-06-15T23:25:29.905Z,0.57
2019-06-15T23:27:56.477Z,0.40
2019-06-15T23:30:22.727Z,0.37
2019-06-15T23:32:49.077Z,0.50
2019-06-15T23:35:16.791Z,0.50
2019-06-15T23:37:46.346Z,0.40
2019-06-15T23:40:23.068Z,0.50
2019-06-15T23:42:49.976Z,0.27
2019-06-15T23:45:18.351Z,0.30
2019-06-15T23:47:46.641Z,0.60
2019-06-15T23:50:16.804Z,0.40
2019-06-15T23:52:42.486Z,0.30
2019-06-15T23:55:10.165Z,0.40
2019-06-15T23:57:36.921Z,0.30
